sensor_id;sensor_type;location;lat;lon;timestamp;P1;P2;P0
65574;PMS5003;52216;54.942;73.394;2023-03-14T00:03:27;2.00;0.00;0.00
65574;PMS5003;52216;54.942;73.394;2023-03-14T00:06:30;3.00;2.00;0.00
65574;PMS5003;52216;54.942;73.394;2023-03-14T00:09:51;2.00;2.00;0.00
65574;PMS5003;52216;54.942;73.394;2023-03-14T00:13:24;2.00;2.00;0.00
65574;PMS5003;52216;54.942;73.394;2023-03-14T00:16:46;2.00;1.00;0.00
65574;PMS5003;52216;54.942;73.394;2023-03-14T00:20:08;1.25;1.00;0.00
65574;PMS5003;52216;54.942;73.394;2023-03-14T00:23:30;1.00;1.00;0.00
65574;PMS5003;52216;54.942;73.394;2023-03-14T00:26:56;0.50;0.50;0.00
65574;PMS5003;52216;54.942;73.394;2023-03-14T00:30:28;0.00;0.00;0.00
65574;PMS5003;52216;54.942;73.394;2023-03-14T00:33:54;0.00;0.00;0.00
65574;PMS5003;52216;54.942;73.394;2023-03-14T00:37:16;1.00;0.50;0.00
65574;PMS5003;52216;54.942;73.394;2023-03-14T00:40:39;1.00;1.00;0.00
65574;PMS5003;52216;54.942;73.394;2023-03-14T00:44:06;2.00;1.00;0.00
65574;PMS5003;52216;54.942;73.394;2023-03-14T00:47:28;0.00;0.00;0.00
65574;PMS5003;52216;54.942;73.394;2023-03-14T00:50:49;0.00;0.00;0.00
65574;PMS5003;52216;54.942;73.394;2023-03-14T00:54:21;1.00;0.25;0.00
65574;PMS5003;52216;54.942;73.394;2023-03-14T00:57:24;2.75;1.00;0.00
65574;PMS5003;52216;54.942;73.394;2023-03-14T01:00:33;1.00;1.00;0.00
65574;PMS5003;52216;54.942;73.394;2023-03-14T01:03:37;0.00;0.00;0.00
65574;PMS5003;52216;54.942;73.394;2023-03-14T01:06:40;1.00;1.00;0.00
65574;PMS5003;52216;54.942;73.394;2023-03-14T01:09:43;1.00;1.00;0.00
65574;PMS5003;52216;54.942;73.394;2023-03-14T01:12:46;1.00;0.00;0.00
65574;PMS5003;52216;54.942;73.394;2023-03-14T01:15:49;0.25;0.00;0.00
65574;PMS5003;52216;54.942;73.394;2023-03-14T01:18:52;2.00;1.00;0.00
65574;PMS5003;52216;54.942;73.394;2023-03-14T01:21:55;1.00;1.00;0.00
65574;PMS5003;52216;54.942;73.394;2023-03-14T01:24:58;1.00;0.00;0.00
65574;PMS5003;52216;54.942;73.394;2023-03-14T01:28:02;1.00;0.00;0.00
65574;PMS5003;52216;54.942;73.394;2023-03-14T01:31:06;1.00;0.50;0.00
65574;PMS5003;52216;54.942;73.394;2023-03-14T01:34:19;0.50;0.00;0.00
65574;PMS5003;52216;54.942;73.394;2023-03-14T01:37:42;1.00;1.00;0.00
65574;PMS5003;52216;54.942;73.394;2023-03-14T01:40:49;1.25;1.00;0.00
65574;PMS5003;52216;54.942;73.394;2023-03-14T01:43:53;3.00;1.75;0.00
65574;PMS5003;52216;54.942;73.394;2023-03-14T01:46:56;2.00;1.25;0.00
65574;PMS5003;52216;54.942;73.394;2023-03-14T01:50:00;1.75;1.75;0.00
65574;PMS5003;52216;54.942;73.394;2023-03-14T01:53:06;2.00;1.75;0.00
65574;PMS5003;52216;54.942;73.394;2023-03-14T01:56:09;1.75;1.75;0.00
65574;PMS5003;52216;54.942;73.394;2023-03-14T01:59:20;1.75;1.00;0.00
65574;PMS5003;52216;54.942;73.394;2023-03-14T02:02:24;2.00;0.00;0.00
65574;PMS5003;52216;54.942;73.394;2023-03-14T02:05:38;1.75;1.00;0.00
65574;PMS5003;52216;54.942;73.394;2023-03-14T02:08:54;3.50;2.00;0.00
65574;PMS5003;52216;54.942;73.394;2023-03-14T02:12:01;2.25;2.00;0.00
65574;PMS5003;52216;54.942;73.394;2023-03-14T02:15:22;3.25;3.00;0.00
65574;PMS5003;52216;54.942;73.394;2023-03-14T02:18:42;3.75;3.00;0.00
65574;PMS5003;52216;54.942;73.394;2023-03-14T02:22:15;3.00;3.00;1.00
65574;PMS5003;52216;54.942;73.394;2023-03-14T02:25:34;2.75;2.75;0.00
65574;PMS5003;52216;54.942;73.394;2023-03-14T02:28:41;5.25;4.00;1.75
65574;PMS5003;52216;54.942;73.394;2023-03-14T02:31:50;5.00;4.00;2.00
65574;PMS5003;52216;54.942;73.394;2023-03-14T02:34:54;8.00;7.50;2.50
65574;PMS5003;52216;54.942;73.394;2023-03-14T02:38:00;13.67;12.00;5.00
65574;PMS5003;52216;54.942;73.394;2023-03-14T02:41:14;15.25;14.00;5.25
65574;PMS5003;52216;54.942;73.394;2023-03-14T02:44:23;9.25;6.75;2.00
65574;PMS5003;52216;54.942;73.394;2023-03-14T02:47:28;4.00;3.00;1.00
65574;PMS5003;52216;54.942;73.394;2023-03-14T02:50:32;3.00;2.00;0.00
65574;PMS5003;52216;54.942;73.394;2023-03-14T02:53:47;3.00;2.00;0.00
65574;PMS5003;52216;54.942;73.394;2023-03-14T02:56:56;4.75;4.00;0.75
65574;PMS5003;52216;54.942;73.394;2023-03-14T03:00:09;4.50;4.00;1.00
65574;PMS5003;52216;54.942;73.394;2023-03-14T03:03:14;3.25;3.00;0.00
65574;PMS5003;52216;54.942;73.394;2023-03-14T03:06:18;4.00;3.75;0.25
65574;PMS5003;52216;54.942;73.394;2023-03-14T03:09:26;3.00;3.00;0.00
65574;PMS5003;52216;54.942;73.394;2023-03-14T03:12:28;2.75;2.00;0.00
65574;PMS5003;52216;54.942;73.394;2023-03-14T03:15:31;2.00;2.00;0.00
65574;PMS5003;52216;54.942;73.394;2023-03-14T03:18:34;2.00;2.00;0.00
65574;PMS5003;52216;54.942;73.394;2023-03-14T03:21:37;1.75;1.75;0.00
65574;PMS5003;52216;54.942;73.394;2023-03-14T03:24:41;2.00;1.75;0.00
65574;PMS5003;52216;54.942;73.394;2023-03-14T03:27:55;2.00;1.75;0.00
65574;PMS5003;52216;54.942;73.394;2023-03-14T03:30:58;1.00;0.00;0.00
65574;PMS5003;52216;54.942;73.394;2023-03-14T03:34:01;2.00;1.25;0.00
65574;PMS5003;52216;54.942;73.394;2023-03-14T03:37:05;4.00;3.75;0.00
65574;PMS5003;52216;54.942;73.394;2023-03-14T03:40:12;5.00;4.25;0.00
65574;PMS5003;52216;54.942;73.394;2023-03-14T03:43:21;12.25;9.75;5.00
65574;PMS5003;52216;54.942;73.394;2023-03-14T03:46:35;19.75;15.25;8.00
65574;PMS5003;52216;54.942;73.394;2023-03-14T03:49:37;23.00;20.00;10.00
65574;PMS5003;52216;54.942;73.394;2023-03-14T03:52:40;22.33;19.00;12.00
65574;PMS5003;52216;54.942;73.394;2023-03-14T03:55:42;20.50;19.00;11.00
65574;PMS5003;52216;54.942;73.394;2023-03-14T03:58:45;22.75;20.25;11.00
65574;PMS5003;52216;54.942;73.394;2023-03-14T04:01:48;23.00;19.00;10.00
65574;PMS5003;52216;54.942;73.394;2023-03-14T04:04:51;16.00;12.50;5.50
65574;PMS5003;52216;54.942;73.394;2023-03-14T04:07:55;13.00;12.00;4.00
65574;PMS5003;52216;54.942;73.394;2023-03-14T04:11:02;13.00;12.00;4.00
65574;PMS5003;52216;54.942;73.394;2023-03-14T04:14:39;14.00;12.00;4.00
65574;PMS5003;52216;54.942;73.394;2023-03-14T04:17:51;15.00;13.00;4.00
65574;PMS5003;52216;54.942;73.394;2023-03-14T04:20:55;12.33;12.33;4.00
65574;PMS5003;52216;54.942;73.394;2023-03-14T04:24:12;11.00;11.00;4.00
65574;PMS5003;52216;54.942;73.394;2023-03-14T04:27:27;4.00;4.00;2.00
65574;PMS5003;52216;54.942;73.394;2023-03-14T04:30:31;6.00;4.33;2.00
65574;PMS5003;52216;54.942;73.394;2023-03-14T04:33:46;3.00;2.00;0.00
65574;PMS5003;52216;54.942;73.394;2023-03-14T04:36:51;2.00;2.00;0.00
65574;PMS5003;52216;54.942;73.394;2023-03-14T04:40:00;3.00;2.00;0.00
65574;PMS5003;52216;54.942;73.394;2023-03-14T04:43:08;2.50;2.50;0.00
65574;PMS5003;52216;54.942;73.394;2023-03-14T04:46:13;2.00;2.00;1.00
65574;PMS5003;52216;54.942;73.394;2023-03-14T04:49:16;1.00;1.00;1.00
65574;PMS5003;52216;54.942;73.394;2023-03-14T04:52:21;2.00;2.00;1.00
65574;PMS5003;52216;54.942;73.394;2023-03-14T04:55:24;3.00;2.00;1.00
65574;PMS5003;52216;54.942;73.394;2023-03-14T04:58:30;2.00;2.00;0.00
65574;PMS5003;52216;54.942;73.394;2023-03-14T05:01:35;2.25;2.00;0.00
65574;PMS5003;52216;54.942;73.394;2023-03-14T05:04:59;3.00;2.00;0.00
65574;PMS5003;52216;54.942;73.394;2023-03-14T05:08:27;2.00;1.50;0.00
65574;PMS5003;52216;54.942;73.394;2023-03-14T05:11:49;3.00;3.00;0.25
65574;PMS5003;52216;54.942;73.394;2023-03-14T05:15:08;4.00;3.50;1.00
65574;PMS5003;52216;54.942;73.394;2023-03-14T05:18:42;3.00;2.00;1.00
65574;PMS5003;52216;54.942;73.394;2023-03-14T05:22:14;3.00;2.33;1.00
65574;PMS5003;52216;54.942;73.394;2023-03-14T05:25:35;4.00;4.00;1.00
65574;PMS5003;52216;54.942;73.394;2023-03-14T05:29:15;4.00;3.00;1.00
65574;PMS5003;52216;54.942;73.394;2023-03-14T05:32:53;4.00;3.50;1.00
65574;PMS5003;52216;54.942;73.394;2023-03-14T05:36:14;4.00;3.00;2.00
65574;PMS5003;52216;54.942;73.394;2023-03-14T05:39:35;2.00;2.00;0.00
65574;PMS5003;52216;54.942;73.394;2023-03-14T05:43:08;3.00;2.00;0.00
65574;PMS5003;52216;54.942;73.394;2023-03-14T05:46:45;2.00;2.00;0.00
65574;PMS5003;52216;54.942;73.394;2023-03-14T05:50:12;2.75;1.00;0.00
65574;PMS5003;52216;54.942;73.394;2023-03-14T05:53:40;2.33;2.00;0.00
65574;PMS5003;52216;54.942;73.394;2023-03-14T05:57:01;3.00;3.00;0.00
65574;PMS5003;52216;54.942;73.394;2023-03-14T06:00:22;3.00;2.00;1.00
65574;PMS5003;52216;54.942;73.394;2023-03-14T06:03:42;1.75;1.75;0.00
65574;PMS5003;52216;54.942;73.394;2023-03-14T06:06:45;2.50;2.50;0.00
65574;PMS5003;52216;54.942;73.394;2023-03-14T06:09:49;2.25;2.00;0.00
65574;PMS5003;52216;54.942;73.394;2023-03-14T06:13:04;2.00;2.00;0.00
65574;PMS5003;52216;54.942;73.394;2023-03-14T06:16:10;3.00;2.00;0.00
65574;PMS5003;52216;54.942;73.394;2023-03-14T06:19:13;1.50;1.50;0.00
65574;PMS5003;52216;54.942;73.394;2023-03-14T06:22:27;2.00;2.00;0.00
65574;PMS5003;52216;54.942;73.394;2023-03-14T06:25:36;2.00;1.25;0.00
65574;PMS5003;52216;54.942;73.394;2023-03-14T06:28:40;0.00;0.00;0.00
65574;PMS5003;52216;54.942;73.394;2023-03-14T06:31:42;0.00;0.00;0.00
65574;PMS5003;52216;54.942;73.394;2023-03-14T06:34:46;2.00;1.00;0.00
65574;PMS5003;52216;54.942;73.394;2023-03-14T06:37:50;2.00;2.00;0.00
65574;PMS5003;52216;54.942;73.394;2023-03-14T06:40:54;1.00;1.00;0.00
65574;PMS5003;52216;54.942;73.394;2023-03-14T06:44:07;2.00;0.00;0.00
65574;PMS5003;52216;54.942;73.394;2023-03-14T06:47:10;1.00;0.00;0.00
65574;PMS5003;52216;54.942;73.394;2023-03-14T06:50:22;2.00;1.00;0.00
65574;PMS5003;52216;54.942;73.394;2023-03-14T06:53:27;2.00;1.50;0.00
65574;PMS5003;52216;54.942;73.394;2023-03-14T06:56:30;2.00;2.00;0.00
65574;PMS5003;52216;54.942;73.394;2023-03-14T06:59:40;1.00;1.00;0.00
65574;PMS5003;52216;54.942;73.394;2023-03-14T07:02:53;2.00;1.00;0.00
65574;PMS5003;52216;54.942;73.394;2023-03-14T07:06:08;1.25;0.00;0.00
65574;PMS5003;52216;54.942;73.394;2023-03-14T07:09:11;1.33;0.00;0.00
65574;PMS5003;52216;54.942;73.394;2023-03-14T07:12:30;1.50;0.00;0.00
65574;PMS5003;52216;54.942;73.394;2023-03-14T07:15:43;0.50;0.50;0.00
65574;PMS5003;52216;54.942;73.394;2023-03-14T07:18:47;1.00;1.00;0.00
65574;PMS5003;52216;54.942;73.394;2023-03-14T07:22:26;2.00;1.00;0.00
65574;PMS5003;52216;54.942;73.394;2023-03-14T07:25:29;3.00;3.00;0.00
65574;PMS5003;52216;54.942;73.394;2023-03-14T07:28:32;2.00;1.00;0.00
65574;PMS5003;52216;54.942;73.394;2023-03-14T07:31:41;2.00;2.00;0.00
65574;PMS5003;52216;54.942;73.394;2023-03-14T07:34:45;1.00;1.00;0.00
65574;PMS5003;52216;54.942;73.394;2023-03-14T07:37:48;1.50;1.50;0.00
65574;PMS5003;52216;54.942;73.394;2023-03-14T07:41:00;2.00;2.00;0.00
65574;PMS5003;52216;54.942;73.394;2023-03-14T07:44:04;2.50;2.00;0.00
65574;PMS5003;52216;54.942;73.394;2023-03-14T07:47:07;3.00;2.00;0.00
65574;PMS5003;52216;54.942;73.394;2023-03-14T07:50:10;2.00;2.00;0.00
65574;PMS5003;52216;54.942;73.394;2023-03-14T07:53:12;2.00;2.00;0.00
65574;PMS5003;52216;54.942;73.394;2023-03-14T07:56:15;2.00;2.00;0.00
65574;PMS5003;52216;54.942;73.394;2023-03-14T07:59:18;2.00;2.00;0.00
65574;PMS5003;52216;54.942;73.394;2023-03-14T08:02:32;2.00;2.00;0.00
65574;PMS5003;52216;54.942;73.394;2023-03-14T08:05:35;1.00;1.00;0.00
65574;PMS5003;52216;54.942;73.394;2023-03-14T08:08:39;1.00;1.00;0.00
65574;PMS5003;52216;54.942;73.394;2023-03-14T08:11:42;1.25;0.25;0.00
65574;PMS5003;52216;54.942;73.394;2023-03-14T08:14:45;0.00;0.00;0.00
65574;PMS5003;52216;54.942;73.394;2023-03-14T08:17:52;1.75;0.00;0.00
65574;PMS5003;52216;54.942;73.394;2023-03-14T08:21:06;1.00;1.00;0.00
65574;PMS5003;52216;54.942;73.394;2023-03-14T08:24:09;0.00;0.00;0.00
65574;PMS5003;52216;54.942;73.394;2023-03-14T08:27:12;0.00;0.00;0.00
65574;PMS5003;52216;54.942;73.394;2023-03-14T08:30:18;1.00;1.00;0.00
65574;PMS5003;52216;54.942;73.394;2023-03-14T08:33:21;0.40;0.40;0.00
65574;PMS5003;52216;54.942;73.394;2023-03-14T08:36:24;2.00;2.00;0.00
65574;PMS5003;52216;54.942;73.394;2023-03-14T08:39:33;0.00;0.00;0.00
65574;PMS5003;52216;54.942;73.394;2023-03-14T08:42:35;3.00;2.00;0.00
65574;PMS5003;52216;54.942;73.394;2023-03-14T08:45:44;2.00;2.00;0.00
65574;PMS5003;52216;54.942;73.394;2023-03-14T08:48:57;2.00;2.00;0.00
65574;PMS5003;52216;54.942;73.394;2023-03-14T08:52:03;1.00;1.00;0.00
65574;PMS5003;52216;54.942;73.394;2023-03-14T08:55:08;2.00;2.00;0.00
65574;PMS5003;52216;54.942;73.394;2023-03-14T08:58:11;2.00;1.75;0.00
65574;PMS5003;52216;54.942;73.394;2023-03-14T09:01:15;2.00;2.00;0.00
65574;PMS5003;52216;54.942;73.394;2023-03-14T09:04:19;2.75;2.00;0.00
65574;PMS5003;52216;54.942;73.394;2023-03-14T09:07:32;2.00;1.50;0.00
65574;PMS5003;52216;54.942;73.394;2023-03-14T09:10:35;1.25;1.25;0.00
65574;PMS5003;52216;54.942;73.394;2023-03-14T09:13:38;1.00;1.00;0.00
65574;PMS5003;52216;54.942;73.394;2023-03-14T09:16:41;1.00;1.00;0.00
65574;PMS5003;52216;54.942;73.394;2023-03-14T09:19:44;1.00;1.00;0.00
65574;PMS5003;52216;54.942;73.394;2023-03-14T09:22:47;1.25;1.00;0.00
65574;PMS5003;52216;54.942;73.394;2023-03-14T09:25:58;2.25;2.00;0.00
65574;PMS5003;52216;54.942;73.394;2023-03-14T09:29:12;2.00;2.00;0.00
65574;PMS5003;52216;54.942;73.394;2023-03-14T09:32:25;2.00;2.00;0.00
65574;PMS5003;52216;54.942;73.394;2023-03-14T09:35:33;1.00;1.00;0.00
65574;PMS5003;52216;54.942;73.394;2023-03-14T09:38:42;3.00;2.00;0.00
65574;PMS5003;52216;54.942;73.394;2023-03-14T09:41:46;2.00;2.00;0.00
65574;PMS5003;52216;54.942;73.394;2023-03-14T09:47:53;2.00;2.00;0.00
65574;PMS5003;52216;54.942;73.394;2023-03-14T09:50:56;2.00;2.00;0.00
65574;PMS5003;52216;54.942;73.394;2023-03-14T09:54:00;1.00;1.00;0.00
65574;PMS5003;52216;54.942;73.394;2023-03-14T09:57:05;1.00;0.00;0.00
65574;PMS5003;52216;54.942;73.394;2023-03-14T10:00:14;2.25;2.00;0.00
65574;PMS5003;52216;54.942;73.394;2023-03-14T10:03:24;2.25;2.00;0.00
65574;PMS5003;52216;54.942;73.394;2023-03-14T10:06:28;2.00;1.00;0.00
65574;PMS5003;52216;54.942;73.394;2023-03-14T10:09:32;1.00;1.00;0.00
65574;PMS5003;52216;54.942;73.394;2023-03-14T10:12:46;1.75;1.00;0.00
65574;PMS5003;52216;54.942;73.394;2023-03-14T10:15:54;1.50;1.00;0.00
65574;PMS5003;52216;54.942;73.394;2023-03-14T10:19:04;1.00;1.00;0.00
65574;PMS5003;52216;54.942;73.394;2023-03-14T10:22:10;1.00;1.00;0.00
65574;PMS5003;52216;54.942;73.394;2023-03-14T10:25:25;0.00;0.00;0.00
65574;PMS5003;52216;54.942;73.394;2023-03-14T10:28:39;2.00;2.00;0.00
65574;PMS5003;52216;54.942;73.394;2023-03-14T10:31:57;2.75;2.75;0.00
65574;PMS5003;52216;54.942;73.394;2023-03-14T10:38:25;2.00;2.00;0.00
65574;PMS5003;52216;54.942;73.394;2023-03-14T10:41:30;2.00;2.00;0.00
65574;PMS5003;52216;54.942;73.394;2023-03-14T10:44:39;0.75;0.75;0.00
65574;PMS5003;52216;54.942;73.394;2023-03-14T10:47:50;2.00;2.00;0.00
65574;PMS5003;52216;54.942;73.394;2023-03-14T10:51:36;2.00;2.00;0.00
65574;PMS5003;52216;54.942;73.394;2023-03-14T10:54:20;1.25;1.25;0.00
65574;PMS5003;52216;54.942;73.394;2023-03-14T10:57:28;2.00;1.50;0.00
65574;PMS5003;52216;54.942;73.394;2023-03-14T11:00:31;2.00;1.75;0.00
65574;PMS5003;52216;54.942;73.394;2023-03-14T11:04:31;2.50;2.50;0.00
65574;PMS5003;52216;54.942;73.394;2023-03-14T11:07:43;2.00;2.00;0.00
65574;PMS5003;52216;54.942;73.394;2023-03-14T11:10:48;2.00;2.00;0.00
65574;PMS5003;52216;54.942;73.394;2023-03-14T11:14:08;2.00;1.00;0.00
65574;PMS5003;52216;54.942;73.394;2023-03-14T11:27:18;3.00;2.75;1.00
65574;PMS5003;52216;54.942;73.394;2023-03-14T11:30:39;3.00;2.00;0.00
65574;PMS5003;52216;54.942;73.394;2023-03-14T11:36:59;1.00;1.00;0.00
65574;PMS5003;52216;54.942;73.394;2023-03-14T11:43:20;2.00;2.00;1.00
65574;PMS5003;52216;54.942;73.394;2023-03-14T11:46:39;2.00;2.00;1.00
65574;PMS5003;52216;54.942;73.394;2023-03-14T11:53:05;2.00;2.00;1.00
65574;PMS5003;52216;54.942;73.394;2023-03-14T11:56:14;2.00;2.00;0.00
65574;PMS5003;52216;54.942;73.394;2023-03-14T11:59:27;3.00;2.00;0.00
65574;PMS5003;52216;54.942;73.394;2023-03-14T12:06:26;1.50;1.50;0.00
65574;PMS5003;52216;54.942;73.394;2023-03-14T12:09:31;2.00;2.00;0.00
65574;PMS5003;52216;54.942;73.394;2023-03-14T12:12:44;1.00;1.00;0.00
65574;PMS5003;52216;54.942;73.394;2023-03-14T12:15:58;2.00;2.00;0.00
65574;PMS5003;52216;54.942;73.394;2023-03-14T12:22:28;2.00;2.00;0.00
65574;PMS5003;52216;54.942;73.394;2023-03-14T12:25:43;2.00;1.00;0.00
65574;PMS5003;52216;54.942;73.394;2023-03-14T12:29:04;2.00;2.00;0.00
65574;PMS5003;52216;54.942;73.394;2023-03-14T12:32:23;2.00;2.00;0.00
65574;PMS5003;52216;54.942;73.394;2023-03-14T12:35:33;2.00;2.00;0.00
65574;PMS5003;52216;54.942;73.394;2023-03-14T12:38:39;4.00;3.50;0.00
65574;PMS5003;52216;54.942;73.394;2023-03-14T12:41:46;3.75;3.00;1.00
65574;PMS5003;52216;54.942;73.394;2023-03-14T12:44:53;2.00;2.00;1.00
65574;PMS5003;52216;54.942;73.394;2023-03-14T12:48:22;3.00;3.00;1.00
65574;PMS5003;52216;54.942;73.394;2023-03-14T12:54:44;2.00;2.00;0.00
65574;PMS5003;52216;54.942;73.394;2023-03-14T13:01:21;1.00;1.00;0.00
65574;PMS5003;52216;54.942;73.394;2023-03-14T13:10:57;1.25;1.00;0.00
65574;PMS5003;52216;54.942;73.394;2023-03-14T13:14:00;2.00;2.00;0.00
65574;PMS5003;52216;54.942;73.394;2023-03-14T13:17:12;2.00;2.00;0.00
65574;PMS5003;52216;54.942;73.394;2023-03-14T13:20:32;3.25;2.50;0.00
65574;PMS5003;52216;54.942;73.394;2023-03-14T13:23:36;4.00;4.00;1.00
65574;PMS5003;52216;54.942;73.394;2023-03-14T13:26:41;4.50;4.50;2.00
65574;PMS5003;52216;54.942;73.394;2023-03-14T13:29:48;6.25;4.00;2.00
65574;PMS5003;52216;54.942;73.394;2023-03-14T13:32:53;4.00;4.00;2.00
65574;PMS5003;52216;54.942;73.394;2023-03-14T13:36:00;5.25;5.00;2.00
65574;PMS5003;52216;54.942;73.394;2023-03-14T13:39:14;6.00;5.00;2.00
65574;PMS5003;52216;54.942;73.394;2023-03-14T13:42:19;5.00;5.00;2.00
65574;PMS5003;52216;54.942;73.394;2023-03-14T13:45:30;7.00;7.00;2.00
65574;PMS5003;52216;54.942;73.394;2023-03-14T13:48:34;7.75;7.00;4.00
65574;PMS5003;52216;54.942;73.394;2023-03-14T13:51:39;7.00;7.00;2.00
65574;PMS5003;52216;54.942;73.394;2023-03-14T13:54:42;6.00;5.00;3.00
65574;PMS5003;52216;54.942;73.394;2023-03-14T13:57:52;6.00;5.50;3.00
65574;PMS5003;52216;54.942;73.394;2023-03-14T14:01:45;7.00;7.00;3.00
65574;PMS5003;52216;54.942;73.394;2023-03-14T14:04:29;5.00;5.00;3.00
65574;PMS5003;52216;54.942;73.394;2023-03-14T14:07:42;4.75;4.00;2.00
65574;PMS5003;52216;54.942;73.394;2023-03-14T14:11:00;6.00;4.50;2.00
65574;PMS5003;52216;54.942;73.394;2023-03-14T14:14:05;4.00;4.00;2.00
65574;PMS5003;52216;54.942;73.394;2023-03-14T14:17:18;5.75;4.00;1.00
65574;PMS5003;52216;54.942;73.394;2023-03-14T14:20:37;4.00;4.00;1.00
65574;PMS5003;52216;54.942;73.394;2023-03-14T14:23:51;6.00;4.00;2.50
65574;PMS5003;52216;54.942;73.394;2023-03-14T14:26:54;3.00;3.00;2.00
65574;PMS5003;52216;54.942;73.394;2023-03-14T14:30:46;2.50;2.00;0.00
65574;PMS5003;52216;54.942;73.394;2023-03-14T14:33:24;2.00;2.00;0.00
65574;PMS5003;52216;54.942;73.394;2023-03-14T14:36:41;2.00;2.00;0.00
65574;PMS5003;52216;54.942;73.394;2023-03-14T14:39:52;2.00;2.00;0.00
65574;PMS5003;52216;54.942;73.394;2023-03-14T14:43:03;3.00;3.00;1.00
65574;PMS5003;52216;54.942;73.394;2023-03-14T14:46:28;3.50;3.00;0.50
65574;PMS5003;52216;54.942;73.394;2023-03-14T14:49:37;4.00;4.00;1.75
65574;PMS5003;52216;54.942;73.394;2023-03-14T14:52:43;4.00;4.00;2.00
65574;PMS5003;52216;54.942;73.394;2023-03-14T14:55:57;4.00;4.00;1.00
65574;PMS5003;52216;54.942;73.394;2023-03-14T14:59:06;4.00;4.00;1.00
65574;PMS5003;52216;54.942;73.394;2023-03-14T15:02:17;4.00;4.00;2.00
65574;PMS5003;52216;54.942;73.394;2023-03-14T15:05:37;6.00;5.00;2.00
65574;PMS5003;52216;54.942;73.394;2023-03-14T15:08:42;6.00;5.00;2.00
65574;PMS5003;52216;54.942;73.394;2023-03-14T15:11:47;3.00;3.00;2.00
65574;PMS5003;52216;54.942;73.394;2023-03-14T15:14:50;6.00;6.00;2.25
65574;PMS5003;52216;54.942;73.394;2023-03-14T15:17:53;4.00;4.00;2.00
65574;PMS5003;52216;54.942;73.394;2023-03-14T15:20:57;7.00;6.00;3.00
65574;PMS5003;52216;54.942;73.394;2023-03-14T15:24:00;5.00;4.00;2.00
65574;PMS5003;52216;54.942;73.394;2023-03-14T15:27:02;4.00;4.00;2.00
65574;PMS5003;52216;54.942;73.394;2023-03-14T15:30:05;4.00;4.00;2.00
65574;PMS5003;52216;54.942;73.394;2023-03-14T15:33:08;4.00;4.00;2.00
65574;PMS5003;52216;54.942;73.394;2023-03-14T15:36:28;4.00;4.00;2.00
65574;PMS5003;52216;54.942;73.394;2023-03-14T15:39:31;4.00;4.00;2.00
65574;PMS5003;52216;54.942;73.394;2023-03-14T15:42:39;2.00;2.00;1.00
65574;PMS5003;52216;54.942;73.394;2023-03-14T15:45:45;2.00;2.00;1.00
65574;PMS5003;52216;54.942;73.394;2023-03-14T15:48:49;3.00;3.00;0.50
65574;PMS5003;52216;54.942;73.394;2023-03-14T15:51:52;2.00;2.00;0.00
65574;PMS5003;52216;54.942;73.394;2023-03-14T15:54:55;2.00;2.00;0.00
65574;PMS5003;52216;54.942;73.394;2023-03-14T15:57:57;2.00;2.00;1.00
65574;PMS5003;52216;54.942;73.394;2023-03-14T16:01:02;1.00;1.00;1.00
65574;PMS5003;52216;54.942;73.394;2023-03-14T16:04:10;2.00;2.00;0.00
65574;PMS5003;52216;54.942;73.394;2023-03-14T16:07:14;3.00;2.00;0.00
65574;PMS5003;52216;54.942;73.394;2023-03-14T16:10:17;2.00;2.00;0.00
65574;PMS5003;52216;54.942;73.394;2023-03-14T16:13:26;2.50;2.00;1.00
65574;PMS5003;52216;54.942;73.394;2023-03-14T16:16:30;2.00;2.00;0.00
65574;PMS5003;52216;54.942;73.394;2023-03-14T16:19:38;2.00;2.00;0.00
65574;PMS5003;52216;54.942;73.394;2023-03-14T16:22:40;3.00;2.00;0.00
65574;PMS5003;52216;54.942;73.394;2023-03-14T16:25:44;1.00;1.00;0.00
65574;PMS5003;52216;54.942;73.394;2023-03-14T16:28:52;3.00;2.00;0.00
65574;PMS5003;52216;54.942;73.394;2023-03-14T16:31:56;2.00;2.00;1.00
65574;PMS5003;52216;54.942;73.394;2023-03-14T16:34:59;2.00;1.00;0.00
65574;PMS5003;52216;54.942;73.394;2023-03-14T16:38:03;1.50;1.50;0.00
65574;PMS5003;52216;54.942;73.394;2023-03-14T16:41:08;2.00;2.00;0.00
65574;PMS5003;52216;54.942;73.394;2023-03-14T16:44:14;1.00;1.00;0.00
65574;PMS5003;52216;54.942;73.394;2023-03-14T16:47:27;2.00;2.00;0.00
65574;PMS5003;52216;54.942;73.394;2023-03-14T16:50:38;3.00;2.00;0.00
65574;PMS5003;52216;54.942;73.394;2023-03-14T16:53:47;2.00;2.00;0.00
65574;PMS5003;52216;54.942;73.394;2023-03-14T16:56:50;1.00;1.00;0.00
65574;PMS5003;52216;54.942;73.394;2023-03-14T16:59:55;1.00;1.00;0.00
65574;PMS5003;52216;54.942;73.394;2023-03-14T17:02:58;2.00;2.00;0.00
65574;PMS5003;52216;54.942;73.394;2023-03-14T17:06:12;1.00;1.00;0.00
65574;PMS5003;52216;54.942;73.394;2023-03-14T17:09:15;1.50;1.50;0.00
65574;PMS5003;52216;54.942;73.394;2023-03-14T17:12:26;2.00;1.00;0.00
65574;PMS5003;52216;54.942;73.394;2023-03-14T17:15:29;2.00;2.00;0.00
65574;PMS5003;52216;54.942;73.394;2023-03-14T17:18:32;1.00;1.00;0.00
65574;PMS5003;52216;54.942;73.394;2023-03-14T17:21:44;0.00;0.00;0.00
65574;PMS5003;52216;54.942;73.394;2023-03-14T17:24:47;1.50;0.75;0.00
65574;PMS5003;52216;54.942;73.394;2023-03-14T17:27:50;0.25;0.00;0.00
65574;PMS5003;52216;54.942;73.394;2023-03-14T17:31:01;2.00;2.00;0.00
65574;PMS5003;52216;54.942;73.394;2023-03-14T17:34:04;1.25;1.00;0.00
65574;PMS5003;52216;54.942;73.394;2023-03-14T17:37:07;0.75;0.75;0.00
65574;PMS5003;52216;54.942;73.394;2023-03-14T17:40:14;0.00;0.00;0.00
65574;PMS5003;52216;54.942;73.394;2023-03-14T17:43:27;0.00;0.00;0.00
65574;PMS5003;52216;54.942;73.394;2023-03-14T17:46:40;0.50;0.50;0.00
65574;PMS5003;52216;54.942;73.394;2023-03-14T17:49:43;1.00;1.00;0.00
65574;PMS5003;52216;54.942;73.394;2023-03-14T17:52:48;1.00;0.00;0.00
65574;PMS5003;52216;54.942;73.394;2023-03-14T17:55:51;0.00;0.00;0.00
65574;PMS5003;52216;54.942;73.394;2023-03-14T17:58:57;1.25;0.00;0.00
65574;PMS5003;52216;54.942;73.394;2023-03-14T18:02:01;1.00;0.00;0.00
65574;PMS5003;52216;54.942;73.394;2023-03-14T18:05:09;0.25;0.00;0.00
65574;PMS5003;52216;54.942;73.394;2023-03-14T18:08:12;0.00;0.00;0.00
65574;PMS5003;52216;54.942;73.394;2023-03-14T18:11:16;0.00;0.00;0.00
65574;PMS5003;52216;54.942;73.394;2023-03-14T18:14:19;1.00;0.00;0.00
65574;PMS5003;52216;54.942;73.394;2023-03-14T18:17:22;0.00;0.00;0.00
65574;PMS5003;52216;54.942;73.394;2023-03-14T18:20:36;0.00;0.00;0.00
65574;PMS5003;52216;54.942;73.394;2023-03-14T18:23:39;1.20;1.20;0.00
65574;PMS5003;52216;54.942;73.394;2023-03-14T18:26:42;1.75;0.50;0.00
65574;PMS5003;52216;54.942;73.394;2023-03-14T18:29:46;0.00;0.00;0.00
65574;PMS5003;52216;54.942;73.394;2023-03-14T18:32:54;2.00;0.00;0.00
65574;PMS5003;52216;54.942;73.394;2023-03-14T18:35:57;1.25;1.25;0.00
65574;PMS5003;52216;54.942;73.394;2023-03-14T18:39:00;0.75;0.00;0.00
65574;PMS5003;52216;54.942;73.394;2023-03-14T18:42:04;0.00;0.00;0.00
65574;PMS5003;52216;54.942;73.394;2023-03-14T18:45:17;0.00;0.00;0.00
65574;PMS5003;52216;54.942;73.394;2023-03-14T18:48:20;0.00;0.00;0.00
65574;PMS5003;52216;54.942;73.394;2023-03-14T18:51:31;0.00;0.00;0.00
65574;PMS5003;52216;54.942;73.394;2023-03-14T18:54:34;1.00;0.00;0.00
65574;PMS5003;52216;54.942;73.394;2023-03-14T18:57:37;1.00;0.00;0.00
65574;PMS5003;52216;54.942;73.394;2023-03-14T19:00:50;0.00;0.00;0.00